sensor_id;sensor_type;location;lat;lon;timestamp;temperature;humidity
17033;DHT22;63208;52.178;21.016;2024-02-26T00:02:19;8.50;99.90
17033;DHT22;63208;52.178;21.016;2024-02-26T00:04:46;8.50;99.90
17033;DHT22;63208;52.178;21.016;2024-02-26T00:07:13;8.40;99.90
17033;DHT22;63208;52.178;21.016;2024-02-26T00:09:39;8.50;99.90
17033;DHT22;63208;52.178;21.016;2024-02-26T00:12:06;8.40;99.90
17033;DHT22;63208;52.178;21.016;2024-02-26T00:14:33;8.30;99.90
17033;DHT22;63208;52.178;21.016;2024-02-26T00:16:59;8.20;99.90
17033;DHT22;63208;52.178;21.016;2024-02-26T00:19:27;8.20;99.90
17033;DHT22;63208;52.178;21.016;2024-02-26T00:21:54;8.20;99.90
17033;DHT22;63208;52.178;21.016;2024-02-26T00:24:21;8.10;99.90
17033;DHT22;63208;52.178;21.016;2024-02-26T00:26:47;8.10;99.90
17033;DHT22;63208;52.178;21.016;2024-02-26T00:29:18;8.10;99.90
17033;DHT22;63208;52.178;21.016;2024-02-26T00:31:44;8.10;99.90
17033;DHT22;63208;52.178;21.016;2024-02-26T00:34:11;8.00;99.90
17033;DHT22;63208;52.178;21.016;2024-02-26T00:36:39;7.90;99.90
17033;DHT22;63208;52.178;21.016;2024-02-26T00:39:06;8.00;99.90
17033;DHT22;63208;52.178;21.016;2024-02-26T00:41:32;8.00;99.90
17033;DHT22;63208;52.178;21.016;2024-02-26T00:43:59;7.90;99.90
17033;DHT22;63208;52.178;21.016;2024-02-26T00:46:26;7.90;99.90
17033;DHT22;63208;52.178;21.016;2024-02-26T00:48:52;7.90;99.90
17033;DHT22;63208;52.178;21.016;2024-02-26T00:51:19;7.90;99.90
17033;DHT22;63208;52.178;21.016;2024-02-26T00:53:47;7.80;99.90
17033;DHT22;63208;52.178;21.016;2024-02-26T00:56:14;7.80;99.90
17033;DHT22;63208;52.178;21.016;2024-02-26T00:58:41;7.80;99.90
17033;DHT22;63208;52.178;21.016;2024-02-26T01:01:07;7.90;99.90
17033;DHT22;63208;52.178;21.016;2024-02-26T01:03:34;7.70;99.90
17033;DHT22;63208;52.178;21.016;2024-02-26T01:06:01;7.80;99.90
17033;DHT22;63208;52.178;21.016;2024-02-26T01:08:28;7.70;99.90
17033;DHT22;63208;52.178;21.016;2024-02-26T01:10:56;7.70;99.90
17033;DHT22;63208;52.178;21.016;2024-02-26T01:13:23;7.70;99.90
17033;DHT22;63208;52.178;21.016;2024-02-26T01:15:50;7.70;99.90
17033;DHT22;63208;52.178;21.016;2024-02-26T01:18:16;7.60;99.90
17033;DHT22;63208;52.178;21.016;2024-02-26T01:20:43;7.60;99.90
17033;DHT22;63208;52.178;21.016;2024-02-26T01:23:10;7.60;99.90
17033;DHT22;63208;52.178;21.016;2024-02-26T01:25:36;7.50;99.90
17033;DHT22;63208;52.178;21.016;2024-02-26T01:28:05;7.50;99.90
17033;DHT22;63208;52.178;21.016;2024-02-26T01:30:32;7.40;99.90
17033;DHT22;63208;52.178;21.016;2024-02-26T01:32:59;7.50;99.90
17033;DHT22;63208;52.178;21.016;2024-02-26T01:35:25;7.40;99.90
17033;DHT22;63208;52.178;21.016;2024-02-26T01:37:52;7.40;99.90
17033;DHT22;63208;52.178;21.016;2024-02-26T01:40:19;7.50;99.90
17033;DHT22;63208;52.178;21.016;2024-02-26T01:42:45;7.40;99.90
17033;DHT22;63208;52.178;21.016;2024-02-26T01:45:14;7.50;99.90
17033;DHT22;63208;52.178;21.016;2024-02-26T01:47:46;7.60;99.90
17033;DHT22;63208;52.178;21.016;2024-02-26T01:50:13;7.50;99.90
17033;DHT22;63208;52.178;21.016;2024-02-26T01:52:39;7.60;99.90
17033;DHT22;63208;52.178;21.016;2024-02-26T01:55:07;7.60;99.90
17033;DHT22;63208;52.178;21.016;2024-02-26T01:57:33;7.60;99.90
17033;DHT22;63208;52.178;21.016;2024-02-26T02:00:00;7.50;99.90
17033;DHT22;63208;52.178;21.016;2024-02-26T02:02:32;7.60;99.90
17033;DHT22;63208;52.178;21.016;2024-02-26T02:04:59;7.60;99.90
17033;DHT22;63208;52.178;21.016;2024-02-26T02:07:26;7.60;99.90
17033;DHT22;63208;52.178;21.016;2024-02-26T02:09:52;7.60;99.90
17033;DHT22;63208;52.178;21.016;2024-02-26T02:12:21;7.60;99.90
17033;DHT22;63208;52.178;21.016;2024-02-26T02:14:47;7.60;99.90
17033;DHT22;63208;52.178;21.016;2024-02-26T02:17:14;7.60;99.90
17033;DHT22;63208;52.178;21.016;2024-02-26T02:19:42;7.60;99.90
17033;DHT22;63208;52.178;21.016;2024-02-26T02:22:10;7.50;99.90
17033;DHT22;63208;52.178;21.016;2024-02-26T02:24:37;7.50;99.90
17033;DHT22;63208;52.178;21.016;2024-02-26T02:27:04;7.50;99.90
17033;DHT22;63208;52.178;21.016;2024-02-26T02:29:30;7.50;99.90
17033;DHT22;63208;52.178;21.016;2024-02-26T02:31:57;7.50;99.90
17033;DHT22;63208;52.178;21.016;2024-02-26T02:34:24;7.50;99.90
17033;DHT22;63208;52.178;21.016;2024-02-26T02:36:51;7.40;99.90
17033;DHT22;63208;52.178;21.016;2024-02-26T02:39:20;7.40;99.90
17033;DHT22;63208;52.178;21.016;2024-02-26T02:41:47;7.30;99.90
17033;DHT22;63208;52.178;21.016;2024-02-26T02:44:14;7.30;99.90
17033;DHT22;63208;52.178;21.016;2024-02-26T02:46:40;7.30;99.90
17033;DHT22;63208;52.178;21.016;2024-02-26T02:49:08;7.30;99.90
17033;DHT22;63208;52.178;21.016;2024-02-26T02:51:35;7.30;99.90
17033;DHT22;63208;52.178;21.016;2024-02-26T02:54:01;7.20;99.90
17033;DHT22;63208;52.178;21.016;2024-02-26T02:56:29;7.30;99.90
17033;DHT22;63208;52.178;21.016;2024-02-26T02:58:56;7.20;99.90
17033;DHT22;63208;52.178;21.016;2024-02-26T03:01:22;7.20;99.90
17033;DHT22;63208;52.178;21.016;2024-02-26T03:03:49;7.10;99.90
17033;DHT22;63208;52.178;21.016;2024-02-26T03:06:16;7.20;99.90
17033;DHT22;63208;52.178;21.016;2024-02-26T03:08:43;7.10;99.90
17033;DHT22;63208;52.178;21.016;2024-02-26T03:11:12;7.00;99.90
17033;DHT22;63208;52.178;21.016;2024-02-26T03:13:40;7.00;99.90
17033;DHT22;63208;52.178;21.016;2024-02-26T03:16:07;7.10;99.90
17033;DHT22;63208;52.178;21.016;2024-02-26T03:18:34;7.00;99.90
17033;DHT22;63208;52.178;21.016;2024-02-26T03:21:01;7.00;99.90
17033;DHT22;63208;52.178;21.016;2024-02-26T03:23:27;7.00;99.90
17033;DHT22;63208;52.178;21.016;2024-02-26T03:25:55;7.00;99.90
17033;DHT22;63208;52.178;21.016;2024-02-26T03:28:21;7.00;99.90
17033;DHT22;63208;52.178;21.016;2024-02-26T03:30:49;6.90;99.90
17033;DHT22;63208;52.178;21.016;2024-02-26T03:33:16;6.90;99.90
17033;DHT22;63208;52.178;21.016;2024-02-26T03:35:43;7.00;99.90
17033;DHT22;63208;52.178;21.016;2024-02-26T03:38:09;6.90;99.90
17033;DHT22;63208;52.178;21.016;2024-02-26T03:40:36;6.80;99.90
17033;DHT22;63208;52.178;21.016;2024-02-26T03:43:03;7.30;99.90
17033;DHT22;63208;52.178;21.016;2024-02-26T03:45:31;6.90;99.90
17033;DHT22;63208;52.178;21.016;2024-02-26T03:47:59;6.80;99.90
17033;DHT22;63208;52.178;21.016;2024-02-26T03:50:26;6.80;99.90
17033;DHT22;63208;52.178;21.016;2024-02-26T03:52:53;6.80;99.90
17033;DHT22;63208;52.178;21.016;2024-02-26T03:55:19;6.70;99.90
17033;DHT22;63208;52.178;21.016;2024-02-26T03:57:50;6.70;99.90
17033;DHT22;63208;52.178;21.016;2024-02-26T04:00:17;6.70;99.90
17033;DHT22;63208;52.178;21.016;2024-02-26T04:02:43;6.80;99.90
17033;DHT22;63208;52.178;21.016;2024-02-26T04:05:11;6.80;99.90
17033;DHT22;63208;52.178;21.016;2024-02-26T04:07:38;6.70;99.90
17033;DHT22;63208;52.178;21.016;2024-02-26T04:10:08;6.70;99.90
17033;DHT22;63208;52.178;21.016;2024-02-26T04:12:35;6.70;99.90
17033;DHT22;63208;52.178;21.016;2024-02-26T04:15:02;6.80;99.90
17033;DHT22;63208;52.178;21.016;2024-02-26T04:17:29;6.90;99.90
17033;DHT22;63208;52.178;21.016;2024-02-26T04:19:56;6.80;99.90
17033;DHT22;63208;52.178;21.016;2024-02-26T04:22:24;6.90;99.90
17033;DHT22;63208;52.178;21.016;2024-02-26T04:24:51;6.90;99.90
17033;DHT22;63208;52.178;21.016;2024-02-26T04:27:18;6.90;99.90
17033;DHT22;63208;52.178;21.016;2024-02-26T04:29:44;6.80;99.90
17033;DHT22;63208;52.178;21.016;2024-02-26T04:32:11;6.80;99.90
17033;DHT22;63208;52.178;21.016;2024-02-26T04:34:37;6.80;99.90
17033;DHT22;63208;52.178;21.016;2024-02-26T04:37:04;6.80;99.90
17033;DHT22;63208;52.178;21.016;2024-02-26T04:39:32;6.60;99.90
17033;DHT22;63208;52.178;21.016;2024-02-26T04:41:59;6.70;99.90
17033;DHT22;63208;52.178;21.016;2024-02-26T04:44:29;6.70;99.90
17033;DHT22;63208;52.178;21.016;2024-02-26T04:46:55;6.70;99.90
17033;DHT22;63208;52.178;21.016;2024-02-26T04:49:22;6.70;99.90
17033;DHT22;63208;52.178;21.016;2024-02-26T04:51:49;6.70;99.90
17033;DHT22;63208;52.178;21.016;2024-02-26T04:54:15;6.70;99.90
17033;DHT22;63208;52.178;21.016;2024-02-26T04:56:44;6.70;99.90
17033;DHT22;63208;52.178;21.016;2024-02-26T04:59:10;6.70;99.90
17033;DHT22;63208;52.178;21.016;2024-02-26T05:01:37;6.60;99.90
17033;DHT22;63208;52.178;21.016;2024-02-26T05:04:04;6.60;99.90
17033;DHT22;63208;52.178;21.016;2024-02-26T05:06:31;6.60;99.90
17033;DHT22;63208;52.178;21.016;2024-02-26T05:08:58;6.70;99.90
17033;DHT22;63208;52.178;21.016;2024-02-26T05:11:24;6.60;99.90
17033;DHT22;63208;52.178;21.016;2024-02-26T05:13:52;6.80;99.90
17033;DHT22;63208;52.178;21.016;2024-02-26T05:16:19;6.60;99.90
17033;DHT22;63208;52.178;21.016;2024-02-26T05:18:49;6.60;99.90
17033;DHT22;63208;52.178;21.016;2024-02-26T05:21:16;6.60;99.90
17033;DHT22;63208;52.178;21.016;2024-02-26T05:23:43;6.60;99.90
17033;DHT22;63208;52.178;21.016;2024-02-26T05:26:10;6.70;99.90
17033;DHT22;63208;52.178;21.016;2024-02-26T05:28:37;6.60;99.90
17033;DHT22;63208;52.178;21.016;2024-02-26T05:31:06;6.60;99.90
17033;DHT22;63208;52.178;21.016;2024-02-26T05:33:33;6.70;99.90
17033;DHT22;63208;52.178;21.016;2024-02-26T05:36:00;6.70;99.90
17033;DHT22;63208;52.178;21.016;2024-02-26T05:38:29;6.70;99.90
17033;DHT22;63208;52.178;21.016;2024-02-26T05:40:56;6.80;99.90
17033;DHT22;63208;52.178;21.016;2024-02-26T05:43:24;6.70;99.90
17033;DHT22;63208;52.178;21.016;2024-02-26T05:45:51;6.80;99.90
17033;DHT22;63208;52.178;21.016;2024-02-26T05:48:19;6.80;99.90
17033;DHT22;63208;52.178;21.016;2024-02-26T05:50:46;6.80;99.90
17033;DHT22;63208;52.178;21.016;2024-02-26T05:53:14;6.90;99.90
17033;DHT22;63208;52.178;21.016;2024-02-26T05:55:41;6.80;99.90
17033;DHT22;63208;52.178;21.016;2024-02-26T05:58:08;6.90;99.90
17033;DHT22;63208;52.178;21.016;2024-02-26T06:00:35;6.90;99.90
17033;DHT22;63208;52.178;21.016;2024-02-26T06:03:02;6.90;99.90
17033;DHT22;63208;52.178;21.016;2024-02-26T06:05:30;7.00;99.90
17033;DHT22;63208;52.178;21.016;2024-02-26T06:07:57;7.00;99.90
17033;DHT22;63208;52.178;21.016;2024-02-26T06:10:24;7.00;99.90
17033;DHT22;63208;52.178;21.016;2024-02-26T06:12:50;7.10;99.90
17033;DHT22;63208;52.178;21.016;2024-02-26T06:15:17;7.00;99.90
17033;DHT22;63208;52.178;21.016;2024-02-26T06:17:44;7.10;99.90
17033;DHT22;63208;52.178;21.016;2024-02-26T06:20:13;7.20;99.90
17033;DHT22;63208;52.178;21.016;2024-02-26T06:22:42;7.20;99.90
17033;DHT22;63208;52.178;21.016;2024-02-26T06:25:09;9.80;99.90
17033;DHT22;63208;52.178;21.016;2024-02-26T06:27:35;7.30;99.90
17033;DHT22;63208;52.178;21.016;2024-02-26T06:30:02;7.30;99.90
17033;DHT22;63208;52.178;21.016;2024-02-26T06:32:29;7.40;99.90
17033;DHT22;63208;52.178;21.016;2024-02-26T06:34:56;7.40;99.90
17033;DHT22;63208;52.178;21.016;2024-02-26T06:37:22;7.40;99.90
17033;DHT22;63208;52.178;21.016;2024-02-26T06:39:52;7.50;99.90
17033;DHT22;63208;52.178;21.016;2024-02-26T06:42:18;7.50;99.90
17033;DHT22;63208;52.178;21.016;2024-02-26T06:44:45;7.50;99.90
17033;DHT22;63208;52.178;21.016;2024-02-26T06:47:12;7.50;99.90
17033;DHT22;63208;52.178;21.016;2024-02-26T06:49:41;7.60;99.90
17033;DHT22;63208;52.178;21.016;2024-02-26T06:52:09;7.60;99.90
17033;DHT22;63208;52.178;21.016;2024-02-26T06:54:36;7.70;99.90
17033;DHT22;63208;52.178;21.016;2024-02-26T06:57:04;9.80;99.90
17033;DHT22;63208;52.178;21.016;2024-02-26T06:59:30;7.80;99.90
17033;DHT22;63208;52.178;21.016;2024-02-26T07:01:57;7.80;99.90
17033;DHT22;63208;52.178;21.016;2024-02-26T07:04:24;7.90;99.90
17033;DHT22;63208;52.178;21.016;2024-02-26T07:06:51;7.90;99.90
17033;DHT22;63208;52.178;21.016;2024-02-26T07:09:17;7.80;99.90
17033;DHT22;63208;52.178;21.016;2024-02-26T07:11:44;7.80;99.90
17033;DHT22;63208;52.178;21.016;2024-02-26T07:14:12;7.90;99.90
17033;DHT22;63208;52.178;21.016;2024-02-26T07:16:39;7.80;99.90
17033;DHT22;63208;52.178;21.016;2024-02-26T07:19:05;7.90;99.90
17033;DHT22;63208;52.178;21.016;2024-02-26T07:21:32;8.00;99.90
17033;DHT22;63208;52.178;21.016;2024-02-26T07:23:59;8.10;99.90
17033;DHT22;63208;52.178;21.016;2024-02-26T07:26:25;8.10;99.90
17033;DHT22;63208;52.178;21.016;2024-02-26T07:28:52;8.10;99.90
17033;DHT22;63208;52.178;21.016;2024-02-26T07:31:20;8.20;99.90
17033;DHT22;63208;52.178;21.016;2024-02-26T07:33:47;8.20;99.90
17033;DHT22;63208;52.178;21.016;2024-02-26T07:36:16;8.30;99.90
17033;DHT22;63208;52.178;21.016;2024-02-26T07:38:43;8.40;99.90
17033;DHT22;63208;52.178;21.016;2024-02-26T07:41:10;8.40;99.90
17033;DHT22;63208;52.178;21.016;2024-02-26T07:43:37;8.50;99.90
17033;DHT22;63208;52.178;21.016;2024-02-26T07:46:04;8.50;99.90
17033;DHT22;63208;52.178;21.016;2024-02-26T07:48:32;8.60;99.90
17033;DHT22;63208;52.178;21.016;2024-02-26T07:50:59;8.70;99.90
17033;DHT22;63208;52.178;21.016;2024-02-26T07:53:26;8.80;99.90
17033;DHT22;63208;52.178;21.016;2024-02-26T07:55:52;8.90;99.90
17033;DHT22;63208;52.178;21.016;2024-02-26T07:58:19;8.90;99.90
17033;DHT22;63208;52.178;21.016;2024-02-26T08:00:46;9.00;99.90
17033;DHT22;63208;52.178;21.016;2024-02-26T08:03:12;9.10;99.90
17033;DHT22;63208;52.178;21.016;2024-02-26T08:05:42;9.10;99.90
17033;DHT22;63208;52.178;21.016;2024-02-26T08:08:09;9.20;99.90
17033;DHT22;63208;52.178;21.016;2024-02-26T08:10:35;9.30;99.90
17033;DHT22;63208;52.178;21.016;2024-02-26T08:13:02;9.40;99.90
17033;DHT22;63208;52.178;21.016;2024-02-26T08:15:31;9.50;99.90
17033;DHT22;63208;52.178;21.016;2024-02-26T08:17:59;9.80;99.90
17033;DHT22;63208;52.178;21.016;2024-02-26T08:20:27;9.90;99.90
17033;DHT22;63208;52.178;21.016;2024-02-26T08:22:55;9.90;99.90
17033;DHT22;63208;52.178;21.016;2024-02-26T08:25:22;9.90;99.90
17033;DHT22;63208;52.178;21.016;2024-02-26T08:27:49;10.10;99.90
17033;DHT22;63208;52.178;21.016;2024-02-26T08:30:16;10.20;99.90
17033;DHT22;63208;52.178;21.016;2024-02-26T08:32:43;10.20;99.90
17033;DHT22;63208;52.178;21.016;2024-02-26T08:35:09;10.20;99.90
17033;DHT22;63208;52.178;21.016;2024-02-26T08:37:36;10.20;99.90
17033;DHT22;63208;52.178;21.016;2024-02-26T08:40:05;10.30;99.90
17033;DHT22;63208;52.178;21.016;2024-02-26T08:42:32;10.40;99.90
17033;DHT22;63208;52.178;21.016;2024-02-26T08:44:59;10.50;99.90
17033;DHT22;63208;52.178;21.016;2024-02-26T08:47:26;10.60;99.90
17033;DHT22;63208;52.178;21.016;2024-02-26T08:49:53;10.60;99.90
17033;DHT22;63208;52.178;21.016;2024-02-26T08:52:20;10.60;99.90
17033;DHT22;63208;52.178;21.016;2024-02-26T08:54:47;10.70;99.90
17033;DHT22;63208;52.178;21.016;2024-02-26T08:57:16;10.70;99.90
17033;DHT22;63208;52.178;21.016;2024-02-26T08:59:43;10.90;99.90
17033;DHT22;63208;52.178;21.016;2024-02-26T09:02:09;10.90;99.90
17033;DHT22;63208;52.178;21.016;2024-02-26T09:04:36;10.90;99.90
17033;DHT22;63208;52.178;21.016;2024-02-26T09:07:03;10.90;99.90
17033;DHT22;63208;52.178;21.016;2024-02-26T09:09:29;11.00;99.90
17033;DHT22;63208;52.178;21.016;2024-02-26T09:11:56;11.10;99.90
17033;DHT22;63208;52.178;21.016;2024-02-26T09:14:25;11.20;99.90
17033;DHT22;63208;52.178;21.016;2024-02-26T09:16:51;11.20;99.90
17033;DHT22;63208;52.178;21.016;2024-02-26T09:19:18;11.60;99.90
17033;DHT22;63208;52.178;21.016;2024-02-26T09:21:45;11.40;99.90
17033;DHT22;63208;52.178;21.016;2024-02-26T09:24:12;11.40;99.90
17033;DHT22;63208;52.178;21.016;2024-02-26T09:26:39;11.50;99.90
17033;DHT22;63208;52.178;21.016;2024-02-26T09:29:05;11.50;99.90
17033;DHT22;63208;52.178;21.016;2024-02-26T09:31:35;11.60;99.90
17033;DHT22;63208;52.178;21.016;2024-02-26T09:34:01;11.70;99.90
17033;DHT22;63208;52.178;21.016;2024-02-26T09:36:28;11.90;99.90
17033;DHT22;63208;52.178;21.016;2024-02-26T09:38:55;11.90;99.90
17033;DHT22;63208;52.178;21.016;2024-02-26T09:41:21;11.90;99.90
17033;DHT22;63208;52.178;21.016;2024-02-26T09:43:48;11.90;99.90
17033;DHT22;63208;52.178;21.016;2024-02-26T09:46:15;11.90;99.90
17033;DHT22;63208;52.178;21.016;2024-02-26T09:48:46;12.00;99.90
17033;DHT22;63208;52.178;21.016;2024-02-26T09:51:13;12.00;99.90
17033;DHT22;63208;52.178;21.016;2024-02-26T09:53:40;11.90;99.90
17033;DHT22;63208;52.178;21.016;2024-02-26T09:56:09;12.00;99.90
17033;DHT22;63208;52.178;21.016;2024-02-26T09:58:37;11.90;99.90
17033;DHT22;63208;52.178;21.016;2024-02-26T10:01:06;11.90;99.90
17033;DHT22;63208;52.178;21.016;2024-02-26T10:03:38;11.90;99.90
17033;DHT22;63208;52.178;21.016;2024-02-26T10:06:07;11.80;99.90
17033;DHT22;63208;52.178;21.016;2024-02-26T10:08:33;11.80;99.90
17033;DHT22;63208;52.178;21.016;2024-02-26T10:11:02;11.80;99.90
17033;DHT22;63208;52.178;21.016;2024-02-26T10:13:29;11.80;99.90
17033;DHT22;63208;52.178;21.016;2024-02-26T10:15:55;11.80;99.90
17033;DHT22;63208;52.178;21.016;2024-02-26T10:18:22;11.80;99.90
17033;DHT22;63208;52.178;21.016;2024-02-26T10:20:58;11.80;99.90
17033;DHT22;63208;52.178;21.016;2024-02-26T10:23:26;11.80;99.90
17033;DHT22;63208;52.178;21.016;2024-02-26T10:25:53;11.80;99.90
17033;DHT22;63208;52.178;21.016;2024-02-26T10:28:20;11.80;99.90
17033;DHT22;63208;52.178;21.016;2024-02-26T10:30:47;11.60;99.90
17033;DHT22;63208;52.178;21.016;2024-02-26T10:33:13;11.60;99.90
17033;DHT22;63208;52.178;21.016;2024-02-26T10:35:44;11.60;99.90
17033;DHT22;63208;52.178;21.016;2024-02-26T10:38:11;11.60;99.90
17033;DHT22;63208;52.178;21.016;2024-02-26T10:40:40;11.50;99.90
17033;DHT22;63208;52.178;21.016;2024-02-26T10:43:07;11.60;99.90
17033;DHT22;63208;52.178;21.016;2024-02-26T10:45:33;11.50;99.90
17033;DHT22;63208;52.178;21.016;2024-02-26T10:48:02;11.60;99.90
17033;DHT22;63208;52.178;21.016;2024-02-26T10:50:29;11.50;99.90
17033;DHT22;63208;52.178;21.016;2024-02-26T10:52:55;11.40;99.90
17033;DHT22;63208;52.178;21.016;2024-02-26T10:55:23;11.40;99.90
17033;DHT22;63208;52.178;21.016;2024-02-26T10:57:52;11.50;99.90
17033;DHT22;63208;52.178;21.016;2024-02-26T11:00:19;11.60;99.90
17033;DHT22;63208;52.178;21.016;2024-02-26T11:02:46;11.50;99.90
17033;DHT22;63208;52.178;21.016;2024-02-26T11:05:13;11.50;99.90
17033;DHT22;63208;52.178;21.016;2024-02-26T11:07:41;11.50;99.90
17033;DHT22;63208;52.178;21.016;2024-02-26T11:10:08;11.60;99.90
17033;DHT22;63208;52.178;21.016;2024-02-26T11:12:36;11.70;99.90
17033;DHT22;63208;52.178;21.016;2024-02-26T11:15:06;11.90;99.90
17033;DHT22;63208;52.178;21.016;2024-02-26T11:17:34;12.00;99.90
17033;DHT22;63208;52.178;21.016;2024-02-26T11:20:02;12.00;99.90
17033;DHT22;63208;52.178;21.016;2024-02-26T11:22:28;12.30;99.90
17033;DHT22;63208;52.178;21.016;2024-02-26T11:24:55;12.40;99.90
17033;DHT22;63208;52.178;21.016;2024-02-26T11:27:23;12.40;99.90
17033;DHT22;63208;52.178;21.016;2024-02-26T11:29:52;12.50;99.90
17033;DHT22;63208;52.178;21.016;2024-02-26T11:32:20;12.70;99.90
17033;DHT22;63208;52.178;21.016;2024-02-26T11:34:47;12.90;99.90
17033;DHT22;63208;52.178;21.016;2024-02-26T11:37:17;13.00;99.90
17033;DHT22;63208;52.178;21.016;2024-02-26T11:39:44;13.00;99.90
17033;DHT22;63208;52.178;21.016;2024-02-26T11:42:13;13.00;99.90
17033;DHT22;63208;52.178;21.016;2024-02-26T11:44:40;12.90;99.90
17033;DHT22;63208;52.178;21.016;2024-02-26T11:47:10;12.90;99.90
17033;DHT22;63208;52.178;21.016;2024-02-26T11:49:38;12.80;99.90
17033;DHT22;63208;52.178;21.016;2024-02-26T11:52:06;12.70;99.90
17033;DHT22;63208;52.178;21.016;2024-02-26T11:54:39;12.80;99.90
17033;DHT22;63208;52.178;21.016;2024-02-26T11:57:19;13.00;99.90
17033;DHT22;63208;52.178;21.016;2024-02-26T11:59:46;13.10;99.90
17033;DHT22;63208;52.178;21.016;2024-02-26T12:02:25;13.10;99.90
17033;DHT22;63208;52.178;21.016;2024-02-26T12:05:06;13.20;99.90
17033;DHT22;63208;52.178;21.016;2024-02-26T12:07:34;13.10;99.90
17033;DHT22;63208;52.178;21.016;2024-02-26T12:10:14;13.30;99.90
17033;DHT22;63208;52.178;21.016;2024-02-26T12:12:41;13.40;99.90
17033;DHT22;63208;52.178;21.016;2024-02-26T12:15:08;13.40;99.90
17033;DHT22;63208;52.178;21.016;2024-02-26T12:17:36;13.30;99.90
17033;DHT22;63208;52.178;21.016;2024-02-26T12:20:11;13.40;99.90
17033;DHT22;63208;52.178;21.016;2024-02-26T12:22:39;13.40;99.90
17033;DHT22;63208;52.178;21.016;2024-02-26T12:25:06;13.30;99.90
17033;DHT22;63208;52.178;21.016;2024-02-26T12:27:35;13.30;99.90
17033;DHT22;63208;52.178;21.016;2024-02-26T12:30:01;13.30;99.90
17033;DHT22;63208;52.178;21.016;2024-02-26T12:32:31;13.40;99.90
17033;DHT22;63208;52.178;21.016;2024-02-26T12:34:58;13.40;99.90
17033;DHT22;63208;52.178;21.016;2024-02-26T12:37:26;13.50;99.90
17033;DHT22;63208;52.178;21.016;2024-02-26T12:39:53;13.50;99.90
17033;DHT22;63208;52.178;21.016;2024-02-26T12:42:20;13.60;99.90
17033;DHT22;63208;52.178;21.016;2024-02-26T12:44:47;13.60;99.90
17033;DHT22;63208;52.178;21.016;2024-02-26T12:47:13;13.60;99.90
17033;DHT22;63208;52.178;21.016;2024-02-26T12:49:42;13.60;99.90
17033;DHT22;63208;52.178;21.016;2024-02-26T12:52:08;13.70;99.90
17033;DHT22;63208;52.178;21.016;2024-02-26T12:54:37;13.70;99.90
17033;DHT22;63208;52.178;21.016;2024-02-26T12:57:04;13.60;99.90
17033;DHT22;63208;52.178;21.016;2024-02-26T12:59:32;13.70;99.90
17033;DHT22;63208;52.178;21.016;2024-02-26T13:01:59;13.80;99.90
17033;DHT22;63208;52.178;21.016;2024-02-26T13:04:26;16.70;99.90
17033;DHT22;63208;52.178;21.016;2024-02-26T13:06:54;14.00;99.90
17033;DHT22;63208;52.178;21.016;2024-02-26T13:09:21;14.70;99.90
17033;DHT22;63208;52.178;21.016;2024-02-26T13:11:53;15.00;99.90
17033;DHT22;63208;52.178;21.016;2024-02-26T13:14:19;15.00;99.90
17033;DHT22;63208;52.178;21.016;2024-02-26T13:16:54;14.80;99.90
17033;DHT22;63208;52.178;21.016;2024-02-26T13:19:20;14.90;99.90
17033;DHT22;63208;52.178;21.016;2024-02-26T13:21:47;14.60;99.90
17033;DHT22;63208;52.178;21.016;2024-02-26T13:24:14;14.80;99.90
17033;DHT22;63208;52.178;21.016;2024-02-26T13:26:40;15.10;99.90
17033;DHT22;63208;52.178;21.016;2024-02-26T13:29:08;15.80;99.90
17033;DHT22;63208;52.178;21.016;2024-02-26T13:31:38;16.70;99.90
17033;DHT22;63208;52.178;21.016;2024-02-26T13:34:05;17.00;99.90
17033;DHT22;63208;52.178;21.016;2024-02-26T13:36:31;17.60;98.40
17033;DHT22;63208;52.178;21.016;2024-02-26T13:38:58;17.70;97.20
17033;DHT22;63208;52.178;21.016;2024-02-26T13:41:25;17.80;96.20
17033;DHT22;63208;52.178;21.016;2024-02-26T13:43:52;18.00;94.90
17033;DHT22;63208;52.178;21.016;2024-02-26T13:46:20;18.00;93.70
17033;DHT22;63208;52.178;21.016;2024-02-26T13:48:47;17.90;93.00
17033;DHT22;63208;52.178;21.016;2024-02-26T13:51:14;17.70;92.40
17033;DHT22;63208;52.178;21.016;2024-02-26T13:53:42;17.80;92.90
17033;DHT22;63208;52.178;21.016;2024-02-26T13:56:11;18.20;92.00
17033;DHT22;63208;52.178;21.016;2024-02-26T13:58:38;18.60;91.20
17033;DHT22;63208;52.178;21.016;2024-02-26T14:01:05;18.40;91.60
17033;DHT22;63208;52.178;21.016;2024-02-26T14:03:33;19.00;90.90
17033;DHT22;63208;52.178;21.016;2024-02-26T14:06:01;19.50;88.40
17033;DHT22;63208;52.178;21.016;2024-02-26T14:08:27;19.50;86.40
17033;DHT22;63208;52.178;21.016;2024-02-26T14:10:54;20.00;84.40
17033;DHT22;63208;52.178;21.016;2024-02-26T14:13:21;19.80;83.70
17033;DHT22;63208;52.178;21.016;2024-02-26T14:15:47;19.40;84.20
17033;DHT22;63208;52.178;21.016;2024-02-26T14:18:14;19.30;84.70
17033;DHT22;63208;52.178;21.016;2024-02-26T14:20:43;19.60;84.60
17033;DHT22;63208;52.178;21.016;2024-02-26T14:23:09;19.60;83.30
17033;DHT22;63208;52.178;21.016;2024-02-26T14:25:36;19.90;82.50
17033;DHT22;63208;52.178;21.016;2024-02-26T14:28:03;20.10;81.10
17033;DHT22;63208;52.178;21.016;2024-02-26T14:30:30;20.10;80.00
17033;DHT22;63208;52.178;21.016;2024-02-26T14:32:57;19.90;80.10
17033;DHT22;63208;52.178;21.016;2024-02-26T14:35:24;19.90;79.70
17033;DHT22;63208;52.178;21.016;2024-02-26T14:37:53;19.60;80.60
17033;DHT22;63208;52.178;21.016;2024-02-26T14:40:20;19.20;81.00
17033;DHT22;63208;52.178;21.016;2024-02-26T14:42:47;19.00;82.50
17033;DHT22;63208;52.178;21.016;2024-02-26T14:45:13;18.80;83.10
17033;DHT22;63208;52.178;21.016;2024-02-26T14:47:41;18.50;84.80
17033;DHT22;63208;52.178;21.016;2024-02-26T14:50:08;18.20;85.30
17033;DHT22;63208;52.178;21.016;2024-02-26T14:52:35;17.80;87.10
17033;DHT22;63208;52.178;21.016;2024-02-26T14:55:03;17.50;89.10
17033;DHT22;63208;52.178;21.016;2024-02-26T14:57:30;17.20;90.10
17033;DHT22;63208;52.178;21.016;2024-02-26T14:59:57;16.90;90.70
17033;DHT22;63208;52.178;21.016;2024-02-26T15:02:24;16.50;91.50
17033;DHT22;63208;52.178;21.016;2024-02-26T15:04:51;16.70;92.80
17033;DHT22;63208;52.178;21.016;2024-02-26T15:07:17;15.90;93.60
17033;DHT22;63208;52.178;21.016;2024-02-26T15:09:45;15.80;94.50
17033;DHT22;63208;52.178;21.016;2024-02-26T15:12:13;16.30;95.50
17033;DHT22;63208;52.178;21.016;2024-02-26T15:14:40;15.30;95.80
17033;DHT22;63208;52.178;21.016;2024-02-26T15:17:07;15.20;96.70
17033;DHT22;63208;52.178;21.016;2024-02-26T15:19:35;14.90;97.40
17033;DHT22;63208;52.178;21.016;2024-02-26T15:22:02;14.90;98.10
17033;DHT22;63208;52.178;21.016;2024-02-26T15:24:29;14.80;98.60
17033;DHT22;63208;52.178;21.016;2024-02-26T15:26:55;14.60;99.30